sensor_id;sensor_type;location;lat;lon;timestamp;temperature;humidity
69598;SHT31;56802;51.184;-115.558;2022-10-16T00:01:49;15.07;35.44
69598;SHT31;56802;51.184;-115.558;2022-10-16T00:04:18;15.02;35.68
69598;SHT31;56802;51.184;-115.558;2022-10-16T00:06:48;14.96;35.86
69598;SHT31;56802;51.184;-115.558;2022-10-16T00:09:18;14.88;36.13
69598;SHT31;56802;51.184;-115.558;2022-10-16T00:11:47;14.82;36.20
69598;SHT31;56802;51.184;-115.558;2022-10-16T00:14:17;14.76;36.21
69598;SHT31;56802;51.184;-115.558;2022-10-16T00:16:46;14.70;36.11
69598;SHT31;56802;51.184;-115.558;2022-10-16T00:19:16;14.68;35.97
69598;SHT31;56802;51.184;-115.558;2022-10-16T00:21:45;14.65;35.93
69598;SHT31;56802;51.184;-115.558;2022-10-16T00:24:14;14.61;36.19
69598;SHT31;56802;51.184;-115.558;2022-10-16T00:26:49;14.52;36.42
69598;SHT31;56802;51.184;-115.558;2022-10-16T00:29:18;14.41;36.70
69598;SHT31;56802;51.184;-115.558;2022-10-16T00:31:48;14.29;36.77
69598;SHT31;56802;51.184;-115.558;2022-10-16T00:34:17;14.20;37.03
69598;SHT31;56802;51.184;-115.558;2022-10-16T00:36:46;14.07;37.55
69598;SHT31;56802;51.184;-115.558;2022-10-16T00:39:16;13.94;37.57
69598;SHT31;56802;51.184;-115.558;2022-10-16T00:41:45;13.85;37.63
69598;SHT31;56802;51.184;-115.558;2022-10-16T00:50:18;13.51;37.94
69598;SHT31;56802;51.184;-115.558;2022-10-16T00:53:02;13.36;38.35
69598;SHT31;56802;51.184;-115.558;2022-10-16T00:55:32;13.25;38.51
69598;SHT31;56802;51.184;-115.558;2022-10-16T00:58:07;13.11;38.43
69598;SHT31;56802;51.184;-115.558;2022-10-16T01:00:37;13.05;37.91
69598;SHT31;56802;51.184;-115.558;2022-10-16T01:03:22;12.98;37.99
69598;SHT31;56802;51.184;-115.558;2022-10-16T01:12:20;12.68;39.77
69598;SHT31;56802;51.184;-115.558;2022-10-16T01:18:13;12.33;41.45
69598;SHT31;56802;51.184;-115.558;2022-10-16T01:21:16;12.15;41.92
69598;SHT31;56802;51.184;-115.558;2022-10-16T01:29:59;11.45;43.53
69598;SHT31;56802;51.184;-115.558;2022-10-16T01:35:32;11.13;44.14
69598;SHT31;56802;51.184;-115.558;2022-10-16T01:38:16;11.00;44.47
69598;SHT31;56802;51.184;-115.558;2022-10-16T01:40:51;10.92;44.59
69598;SHT31;56802;51.184;-115.558;2022-10-16T01:43:31;10.81;44.83
69598;SHT31;56802;51.184;-115.558;2022-10-16T01:46:08;10.70;45.01
69598;SHT31;56802;51.184;-115.558;2022-10-16T01:48:41;10.63;45.06
69598;SHT31;56802;51.184;-115.558;2022-10-16T01:51:11;10.51;45.34
69598;SHT31;56802;51.184;-115.558;2022-10-16T01:53:46;10.45;45.61
69598;SHT31;56802;51.184;-115.558;2022-10-16T01:56:22;10.35;45.84
69598;SHT31;56802;51.184;-115.558;2022-10-16T01:59:09;10.23;45.91
69598;SHT31;56802;51.184;-115.558;2022-10-16T02:01:44;10.12;46.21
69598;SHT31;56802;51.184;-115.558;2022-10-16T02:04:31;10.03;46.42
69598;SHT31;56802;51.184;-115.558;2022-10-16T02:07:04;9.95;46.67
69598;SHT31;56802;51.184;-115.558;2022-10-16T02:09:35;9.87;46.75
69598;SHT31;56802;51.184;-115.558;2022-10-16T02:12:14;9.80;46.98
69598;SHT31;56802;51.184;-115.558;2022-10-16T02:14:57;9.71;47.13
69598;SHT31;56802;51.184;-115.558;2022-10-16T02:17:26;9.66;47.22
69598;SHT31;56802;51.184;-115.558;2022-10-16T02:19:56;9.62;47.46
69598;SHT31;56802;51.184;-115.558;2022-10-16T02:22:28;9.55;47.65
69598;SHT31;56802;51.184;-115.558;2022-10-16T02:30:43;9.23;48.20
69598;SHT31;56802;51.184;-115.558;2022-10-16T02:33:24;9.15;48.15
69598;SHT31;56802;51.184;-115.558;2022-10-16T02:35:56;9.07;48.43
69598;SHT31;56802;51.184;-115.558;2022-10-16T02:38:27;8.98;48.66
69598;SHT31;56802;51.184;-115.558;2022-10-16T02:40:58;8.89;48.79
69598;SHT31;56802;51.184;-115.558;2022-10-16T02:43:28;8.78;48.98
69598;SHT31;56802;51.184;-115.558;2022-10-16T02:45:57;8.65;49.22
69598;SHT31;56802;51.184;-115.558;2022-10-16T02:48:26;8.54;49.46
69598;SHT31;56802;51.184;-115.558;2022-10-16T02:50:56;8.43;49.46
69598;SHT31;56802;51.184;-115.558;2022-10-16T02:53:25;8.37;49.70
69598;SHT31;56802;51.184;-115.558;2022-10-16T02:55:54;8.32;49.77
69598;SHT31;56802;51.184;-115.558;2022-10-16T02:58:24;8.25;49.87
69598;SHT31;56802;51.184;-115.558;2022-10-16T03:00:54;8.20;50.09
69598;SHT31;56802;51.184;-115.558;2022-10-16T03:03:24;8.14;50.25
69598;SHT31;56802;51.184;-115.558;2022-10-16T03:05:53;8.07;50.46
69598;SHT31;56802;51.184;-115.558;2022-10-16T03:08:22;7.98;50.69
69598;SHT31;56802;51.184;-115.558;2022-10-16T03:10:52;7.90;50.88
69598;SHT31;56802;51.184;-115.558;2022-10-16T03:13:21;7.82;51.01
69598;SHT31;56802;51.184;-115.558;2022-10-16T03:15:51;7.70;51.38
69598;SHT31;56802;51.184;-115.558;2022-10-16T03:18:20;7.59;51.60
69598;SHT31;56802;51.184;-115.558;2022-10-16T03:20:49;7.55;51.75
69598;SHT31;56802;51.184;-115.558;2022-10-16T03:23:19;7.47;51.76
69598;SHT31;56802;51.184;-115.558;2022-10-16T03:25:48;7.27;52.00
69598;SHT31;56802;51.184;-115.558;2022-10-16T03:28:17;7.11;52.31
69598;SHT31;56802;51.184;-115.558;2022-10-16T03:30:47;7.03;52.47
69598;SHT31;56802;51.184;-115.558;2022-10-16T03:33:16;7.00;52.55
69598;SHT31;56802;51.184;-115.558;2022-10-16T03:35:50;6.99;52.60
69598;SHT31;56802;51.184;-115.558;2022-10-16T03:38:21;7.00;52.62
69598;SHT31;56802;51.184;-115.558;2022-10-16T03:40:51;6.96;52.87
69598;SHT31;56802;51.184;-115.558;2022-10-16T03:43:20;6.92;53.02
69598;SHT31;56802;51.184;-115.558;2022-10-16T03:45:52;6.84;53.15
69598;SHT31;56802;51.184;-115.558;2022-10-16T03:48:22;6.72;53.38
69598;SHT31;56802;51.184;-115.558;2022-10-16T03:50:52;6.59;53.46
69598;SHT31;56802;51.184;-115.558;2022-10-16T03:53:25;6.49;53.65
69598;SHT31;56802;51.184;-115.558;2022-10-16T03:55:54;6.45;53.81
69598;SHT31;56802;51.184;-115.558;2022-10-16T03:58:23;6.42;53.96
69598;SHT31;56802;51.184;-115.558;2022-10-16T04:00:53;6.40;54.05
69598;SHT31;56802;51.184;-115.558;2022-10-16T04:03:23;6.37;54.10
69598;SHT31;56802;51.184;-115.558;2022-10-16T04:05:52;6.32;54.21
69598;SHT31;56802;51.184;-115.558;2022-10-16T04:08:21;6.27;54.43
69598;SHT31;56802;51.184;-115.558;2022-10-16T04:10:51;6.23;54.51
69598;SHT31;56802;51.184;-115.558;2022-10-16T04:13:20;6.18;54.61
69598;SHT31;56802;51.184;-115.558;2022-10-16T04:15:50;6.15;54.78
69598;SHT31;56802;51.184;-115.558;2022-10-16T04:18:19;6.10;54.79
69598;SHT31;56802;51.184;-115.558;2022-10-16T04:20:48;6.04;54.98
69598;SHT31;56802;51.184;-115.558;2022-10-16T04:23:18;5.92;55.31
69598;SHT31;56802;51.184;-115.558;2022-10-16T04:25:47;5.87;55.44
69598;SHT31;56802;51.184;-115.558;2022-10-16T04:28:16;5.80;55.54
69598;SHT31;56802;51.184;-115.558;2022-10-16T04:30:46;5.72;55.64
69598;SHT31;56802;51.184;-115.558;2022-10-16T04:33:15;5.64;55.78
69598;SHT31;56802;51.184;-115.558;2022-10-16T04:35:44;5.60;55.94
69598;SHT31;56802;51.184;-115.558;2022-10-16T04:38:13;5.54;56.06
69598;SHT31;56802;51.184;-115.558;2022-10-16T04:40:43;5.44;56.34
69598;SHT31;56802;51.184;-115.558;2022-10-16T04:43:12;5.42;56.35
69598;SHT31;56802;51.184;-115.558;2022-10-16T04:45:41;5.42;56.51
69598;SHT31;56802;51.184;-115.558;2022-10-16T04:48:10;5.38;56.63
69598;SHT31;56802;51.184;-115.558;2022-10-16T04:50:40;5.36;56.79
69598;SHT31;56802;51.184;-115.558;2022-10-16T04:53:10;5.32;56.98
69598;SHT31;56802;51.184;-115.558;2022-10-16T04:55:40;5.29;57.24
69598;SHT31;56802;51.184;-115.558;2022-10-16T04:58:11;5.25;57.40
69598;SHT31;56802;51.184;-115.558;2022-10-16T05:00:40;5.17;57.68
69598;SHT31;56802;51.184;-115.558;2022-10-16T05:03:10;5.16;58.00
69598;SHT31;56802;51.184;-115.558;2022-10-16T05:05:43;5.18;58.05
69598;SHT31;56802;51.184;-115.558;2022-10-16T05:08:14;5.19;58.28
69598;SHT31;56802;51.184;-115.558;2022-10-16T05:10:44;5.14;58.17
69598;SHT31;56802;51.184;-115.558;2022-10-16T05:13:13;5.08;57.98
69598;SHT31;56802;51.184;-115.558;2022-10-16T05:15:46;4.95;57.85
69598;SHT31;56802;51.184;-115.558;2022-10-16T05:18:16;4.71;58.14
69598;SHT31;56802;51.184;-115.558;2022-10-16T05:20:45;4.54;58.54
69598;SHT31;56802;51.184;-115.558;2022-10-16T05:23:14;4.54;58.59
69598;SHT31;56802;51.184;-115.558;2022-10-16T05:25:51;4.53;58.70
69598;SHT31;56802;51.184;-115.558;2022-10-16T05:28:23;4.48;58.91
69598;SHT31;56802;51.184;-115.558;2022-10-16T05:30:57;4.46;59.05
69598;SHT31;56802;51.184;-115.558;2022-10-16T05:33:27;4.45;59.12
69598;SHT31;56802;51.184;-115.558;2022-10-16T05:35:56;4.40;59.31
69598;SHT31;56802;51.184;-115.558;2022-10-16T05:38:28;4.38;59.60
69598;SHT31;56802;51.184;-115.558;2022-10-16T05:40:57;4.40;60.35
69598;SHT31;56802;51.184;-115.558;2022-10-16T05:43:27;4.43;60.43
69598;SHT31;56802;51.184;-115.558;2022-10-16T05:46:00;4.40;60.14
69598;SHT31;56802;51.184;-115.558;2022-10-16T05:48:33;4.33;59.89
69598;SHT31;56802;51.184;-115.558;2022-10-16T05:51:03;4.25;59.82
69598;SHT31;56802;51.184;-115.558;2022-10-16T05:53:35;4.14;59.99
69598;SHT31;56802;51.184;-115.558;2022-10-16T05:56:08;4.01;60.41
69598;SHT31;56802;51.184;-115.558;2022-10-16T05:58:40;3.93;60.68
69598;SHT31;56802;51.184;-115.558;2022-10-16T06:01:12;3.80;61.08
69598;SHT31;56802;51.184;-115.558;2022-10-16T06:03:47;3.73;61.31
69598;SHT31;56802;51.184;-115.558;2022-10-16T06:06:17;3.69;61.56
69598;SHT31;56802;51.184;-115.558;2022-10-16T06:08:50;3.66;61.70
69598;SHT31;56802;51.184;-115.558;2022-10-16T06:11:22;3.69;61.58
69598;SHT31;56802;51.184;-115.558;2022-10-16T06:13:58;3.70;61.61
69598;SHT31;56802;51.184;-115.558;2022-10-16T06:16:34;3.69;61.66
69598;SHT31;56802;51.184;-115.558;2022-10-16T06:19:05;3.70;61.62
69598;SHT31;56802;51.184;-115.558;2022-10-16T06:21:35;3.70;61.65
69598;SHT31;56802;51.184;-115.558;2022-10-16T06:24:05;3.69;61.70
69598;SHT31;56802;51.184;-115.558;2022-10-16T06:26:34;3.65;61.86
69598;SHT31;56802;51.184;-115.558;2022-10-16T06:29:04;3.61;62.12
69598;SHT31;56802;51.184;-115.558;2022-10-16T06:31:33;3.61;62.53
69598;SHT31;56802;51.184;-115.558;2022-10-16T06:34:02;3.63;63.04
69598;SHT31;56802;51.184;-115.558;2022-10-16T06:36:37;3.69;63.36
69598;SHT31;56802;51.184;-115.558;2022-10-16T06:39:07;3.78;63.50
69598;SHT31;56802;51.184;-115.558;2022-10-16T06:41:36;3.87;63.57
69598;SHT31;56802;51.184;-115.558;2022-10-16T06:44:06;3.97;63.56
69598;SHT31;56802;51.184;-115.558;2022-10-16T06:46:36;4.04;63.46
69598;SHT31;56802;51.184;-115.558;2022-10-16T06:49:05;4.11;63.28
69598;SHT31;56802;51.184;-115.558;2022-10-16T06:51:34;4.17;63.27
69598;SHT31;56802;51.184;-115.558;2022-10-16T06:54:09;4.23;63.21
69598;SHT31;56802;51.184;-115.558;2022-10-16T06:56:39;4.24;63.18
69598;SHT31;56802;51.184;-115.558;2022-10-16T06:59:08;4.25;63.12
69598;SHT31;56802;51.184;-115.558;2022-10-16T07:01:37;4.22;62.86
69598;SHT31;56802;51.184;-115.558;2022-10-16T07:04:06;4.19;62.57
69598;SHT31;56802;51.184;-115.558;2022-10-16T07:06:36;4.05;62.17
69598;SHT31;56802;51.184;-115.558;2022-10-16T07:09:06;3.81;62.28
69598;SHT31;56802;51.184;-115.558;2022-10-16T07:11:38;3.64;62.62
69598;SHT31;56802;51.184;-115.558;2022-10-16T07:14:18;3.54;62.70
69598;SHT31;56802;51.184;-115.558;2022-10-16T07:16:50;3.43;62.97
69598;SHT31;56802;51.184;-115.558;2022-10-16T07:19:19;3.41;63.24
69598;SHT31;56802;51.184;-115.558;2022-10-16T07:21:49;3.42;63.60
69598;SHT31;56802;51.184;-115.558;2022-10-16T07:24:18;3.46;64.20
69598;SHT31;56802;51.184;-115.558;2022-10-16T07:26:47;3.49;64.52
69598;SHT31;56802;51.184;-115.558;2022-10-16T07:29:20;3.53;64.67
69598;SHT31;56802;51.184;-115.558;2022-10-16T07:31:53;3.53;64.81
69598;SHT31;56802;51.184;-115.558;2022-10-16T07:34:22;3.53;64.87
69598;SHT31;56802;51.184;-115.558;2022-10-16T07:36:52;3.53;64.84
69598;SHT31;56802;51.184;-115.558;2022-10-16T07:39:21;3.55;64.85
69598;SHT31;56802;51.184;-115.558;2022-10-16T07:41:50;3.53;64.94
69598;SHT31;56802;51.184;-115.558;2022-10-16T07:44:20;3.51;65.00
69598;SHT31;56802;51.184;-115.558;2022-10-16T07:46:49;3.53;65.01
69598;SHT31;56802;51.184;-115.558;2022-10-16T07:49:18;3.59;64.99
69598;SHT31;56802;51.184;-115.558;2022-10-16T07:51:48;3.68;64.82
69598;SHT31;56802;51.184;-115.558;2022-10-16T07:54:17;3.74;64.65
69598;SHT31;56802;51.184;-115.558;2022-10-16T07:56:46;3.82;64.51
69598;SHT31;56802;51.184;-115.558;2022-10-16T07:59:15;3.87;64.34
69598;SHT31;56802;51.184;-115.558;2022-10-16T08:01:44;3.90;64.12
69598;SHT31;56802;51.184;-115.558;2022-10-16T08:04:14;3.90;64.08
69598;SHT31;56802;51.184;-115.558;2022-10-16T08:06:43;3.91;64.02
69598;SHT31;56802;51.184;-115.558;2022-10-16T08:09:12;3.89;64.02
69598;SHT31;56802;51.184;-115.558;2022-10-16T08:11:42;3.87;64.03
69598;SHT31;56802;51.184;-115.558;2022-10-16T08:14:11;3.85;64.07
69598;SHT31;56802;51.184;-115.558;2022-10-16T08:16:40;3.83;64.11
69598;SHT31;56802;51.184;-115.558;2022-10-16T08:19:09;3.80;64.22
69598;SHT31;56802;51.184;-115.558;2022-10-16T08:21:38;3.76;64.36
69598;SHT31;56802;51.184;-115.558;2022-10-16T08:24:07;3.69;64.57
69598;SHT31;56802;51.184;-115.558;2022-10-16T08:26:37;3.65;64.71
69598;SHT31;56802;51.184;-115.558;2022-10-16T08:29:06;3.60;64.83
69598;SHT31;56802;51.184;-115.558;2022-10-16T08:31:36;3.54;64.99
69598;SHT31;56802;51.184;-115.558;2022-10-16T08:34:06;3.47;65.17
69598;SHT31;56802;51.184;-115.558;2022-10-16T08:36:35;3.42;65.31
69598;SHT31;56802;51.184;-115.558;2022-10-16T08:39:07;3.37;65.45
69598;SHT31;56802;51.184;-115.558;2022-10-16T08:50:25;3.28;65.59
69598;SHT31;56802;51.184;-115.558;2022-10-16T08:52:58;3.30;65.54
69598;SHT31;56802;51.184;-115.558;2022-10-16T08:55:32;3.31;65.53
69598;SHT31;56802;51.184;-115.558;2022-10-16T08:58:10;3.34;65.53
69598;SHT31;56802;51.184;-115.558;2022-10-16T09:00:56;3.35;65.48
69598;SHT31;56802;51.184;-115.558;2022-10-16T09:06:26;3.41;65.34
69598;SHT31;56802;51.184;-115.558;2022-10-16T09:09:25;3.41;65.30
69598;SHT31;56802;51.184;-115.558;2022-10-16T09:12:51;3.39;65.29
69598;SHT31;56802;51.184;-115.558;2022-10-16T09:21:29;3.24;65.61
69598;SHT31;56802;51.184;-115.558;2022-10-16T09:24:18;3.20;65.72
69598;SHT31;56802;51.184;-115.558;2022-10-16T09:26:55;3.14;65.80
69598;SHT31;56802;51.184;-115.558;2022-10-16T09:29:24;3.11;65.90
69598;SHT31;56802;51.184;-115.558;2022-10-16T09:31:53;3.06;66.04
69598;SHT31;56802;51.184;-115.558;2022-10-16T09:34:53;2.99;66.11
69598;SHT31;56802;51.184;-115.558;2022-10-16T09:37:25;2.94;66.26
69598;SHT31;56802;51.184;-115.558;2022-10-16T09:39:55;2.89;66.41
69598;SHT31;56802;51.184;-115.558;2022-10-16T09:42:34;2.85;66.50
69598;SHT31;56802;51.184;-115.558;2022-10-16T09:45:19;2.82;66.51
69598;SHT31;56802;51.184;-115.558;2022-10-16T09:47:51;2.78;66.57
69598;SHT31;56802;51.184;-115.558;2022-10-16T09:50:26;2.76;66.63
69598;SHT31;56802;51.184;-115.558;2022-10-16T09:53:04;2.72;66.78
69598;SHT31;56802;51.184;-115.558;2022-10-16T09:55:48;2.71;66.84
69598;SHT31;56802;51.184;-115.558;2022-10-16T09:58:22;2.73;66.81
69598;SHT31;56802;51.184;-115.558;2022-10-16T10:00:53;2.74;66.79
69598;SHT31;56802;51.184;-115.558;2022-10-16T10:03:41;2.74;66.80
69598;SHT31;56802;51.184;-115.558;2022-10-16T10:06:17;2.73;66.77
69598;SHT31;56802;51.184;-115.558;2022-10-16T10:11:47;2.72;66.69
69598;SHT31;56802;51.184;-115.558;2022-10-16T10:17:12;2.66;66.77
69598;SHT31;56802;51.184;-115.558;2022-10-16T10:20:00;2.61;66.90
69598;SHT31;56802;51.184;-115.558;2022-10-16T10:22:58;2.55;67.10
69598;SHT31;56802;51.184;-115.558;2022-10-16T10:28:21;2.41;67.35
69598;SHT31;56802;51.184;-115.558;2022-10-16T10:31:24;2.35;67.47
69598;SHT31;56802;51.184;-115.558;2022-10-16T10:46:05;2.13;68.09
69598;SHT31;56802;51.184;-115.558;2022-10-16T10:51:41;2.07;68.30
69598;SHT31;56802;51.184;-115.558;2022-10-16T11:00:17;2.09;68.36
69598;SHT31;56802;51.184;-115.558;2022-10-16T11:17:08;1.94;68.81
69598;SHT31;56802;51.184;-115.558;2022-10-16T11:20:04;1.96;68.81
69598;SHT31;56802;51.184;-115.558;2022-10-16T11:22:56;1.98;68.81
69598;SHT31;56802;51.184;-115.558;2022-10-16T11:25:35;2.02;68.87
69598;SHT31;56802;51.184;-115.558;2022-10-16T11:28:16;2.04;68.81
69598;SHT31;56802;51.184;-115.558;2022-10-16T11:31:17;2.05;68.80
69598;SHT31;56802;51.184;-115.558;2022-10-16T11:34:22;2.03;68.75
69598;SHT31;56802;51.184;-115.558;2022-10-16T11:37:35;1.95;68.80
69598;SHT31;56802;51.184;-115.558;2022-10-16T11:40:22;1.93;68.80
69598;SHT31;56802;51.184;-115.558;2022-10-16T11:43:17;1.88;68.81
69598;SHT31;56802;51.184;-115.558;2022-10-16T11:45:56;1.82;68.92
69598;SHT31;56802;51.184;-115.558;2022-10-16T11:48:36;1.79;69.03
69598;SHT31;56802;51.184;-115.558;2022-10-16T11:51:21;1.74;69.17
69598;SHT31;56802;51.184;-115.558;2022-10-16T11:57:31;1.64;69.54
69598;SHT31;56802;51.184;-115.558;2022-10-16T12:00:14;1.62;69.65
69598;SHT31;56802;51.184;-115.558;2022-10-16T12:06:21;1.60;69.77
69598;SHT31;56802;51.184;-115.558;2022-10-16T12:09:22;1.60;69.70
69598;SHT31;56802;51.184;-115.558;2022-10-16T12:11:57;1.59;69.72
69598;SHT31;56802;51.184;-115.558;2022-10-16T12:14:40;1.56;69.80
69598;SHT31;56802;51.184;-115.558;2022-10-16T12:17:36;1.53;69.93
69598;SHT31;56802;51.184;-115.558;2022-10-16T12:23:03;1.45;70.10
69598;SHT31;56802;51.184;-115.558;2022-10-16T12:25:38;1.40;70.27
69598;SHT31;56802;51.184;-115.558;2022-10-16T12:28:21;1.36;70.36
69598;SHT31;56802;51.184;-115.558;2022-10-16T12:30:59;1.31;70.42
69598;SHT31;56802;51.184;-115.558;2022-10-16T12:33:33;1.27;70.62
69598;SHT31;56802;51.184;-115.558;2022-10-16T12:36:30;1.28;70.70
69598;SHT31;56802;51.184;-115.558;2022-10-16T12:39:02;1.28;70.70
69598;SHT31;56802;51.184;-115.558;2022-10-16T12:41:35;1.31;70.60
69598;SHT31;56802;51.184;-115.558;2022-10-16T12:44:21;1.32;70.60
69598;SHT31;56802;51.184;-115.558;2022-10-16T12:46:54;1.32;70.65
69598;SHT31;56802;51.184;-115.558;2022-10-16T12:49:31;1.36;70.53
69598;SHT31;56802;51.184;-115.558;2022-10-16T12:52:22;1.37;70.49
69598;SHT31;56802;51.184;-115.558;2022-10-16T12:55:11;1.35;70.56
69598;SHT31;56802;51.184;-115.558;2022-10-16T12:58:00;1.35;70.60
69598;SHT31;56802;51.184;-115.558;2022-10-16T13:00:57;1.34;70.70
69598;SHT31;56802;51.184;-115.558;2022-10-16T13:06:51;1.31;71.01
69598;SHT31;56802;51.184;-115.558;2022-10-16T13:10:09;1.30;71.00
69598;SHT31;56802;51.184;-115.558;2022-10-16T13:13:03;1.25;71.05
69598;SHT31;56802;51.184;-115.558;2022-10-16T13:15:49;1.23;71.19
69598;SHT31;56802;51.184;-115.558;2022-10-16T13:18:56;1.21;71.11
69598;SHT31;56802;51.184;-115.558;2022-10-16T13:21:39;1.18;71.14
69598;SHT31;56802;51.184;-115.558;2022-10-16T13:24:25;1.19;71.10
69598;SHT31;56802;51.184;-115.558;2022-10-16T13:27:38;1.18;71.19
69598;SHT31;56802;51.184;-115.558;2022-10-16T13:30:21;1.17;71.25
69598;SHT31;56802;51.184;-115.558;2022-10-16T13:32:59;1.20;71.21
69598;SHT31;56802;51.184;-115.558;2022-10-16T13:35:48;1.23;71.15
69598;SHT31;56802;51.184;-115.558;2022-10-16T13:38:23;1.23;71.20
69598;SHT31;56802;51.184;-115.558;2022-10-16T13:46:24;1.26;71.30
69598;SHT31;56802;51.184;-115.558;2022-10-16T13:49:05;1.24;71.28
69598;SHT31;56802;51.184;-115.558;2022-10-16T13:51:55;1.21;71.39
69598;SHT31;56802;51.184;-115.558;2022-10-16T13:54:27;1.14;71.46
69598;SHT31;56802;51.184;-115.558;2022-10-16T13:57:04;1.07;71.62
69598;SHT31;56802;51.184;-115.558;2022-10-16T13:59:52;1.08;71.71
69598;SHT31;56802;51.184;-115.558;2022-10-16T14:02:26;1.08;71.72
69598;SHT31;56802;51.184;-115.558;2022-10-16T14:05:08;1.09;71.80
69598;SHT31;56802;51.184;-115.558;2022-10-16T14:07:38;1.11;71.70
69598;SHT31;56802;51.184;-115.558;2022-10-16T14:10:24;1.10;71.70
69598;SHT31;56802;51.184;-115.558;2022-10-16T14:13:02;1.11;71.71
69598;SHT31;56802;51.184;-115.558;2022-10-16T14:15:35;1.14;71.72
69598;SHT31;56802;51.184;-115.558;2022-10-16T14:18:05;1.15;71.71
69598;SHT31;56802;51.184;-115.558;2022-10-16T14:20:35;1.15;71.70
69598;SHT31;56802;51.184;-115.558;2022-10-16T14:23:18;1.16;71.85
69598;SHT31;56802;51.184;-115.558;2022-10-16T14:26:06;1.20;71.94
69598;SHT31;56802;51.184;-115.558;2022-10-16T14:28:38;1.21;71.90
69598;SHT31;56802;51.184;-115.558;2022-10-16T14:34:29;1.17;71.88
69598;SHT31;56802;51.184;-115.558;2022-10-16T14:37:24;1.15;71.92
69598;SHT31;56802;51.184;-115.558;2022-10-16T14:39:57;1.17;71.87
69598;SHT31;56802;51.184;-115.558;2022-10-16T14:42:28;1.19;71.83
69598;SHT31;56802;51.184;-115.558;2022-10-16T14:44:58;1.24;71.75
69598;SHT31;56802;51.184;-115.558;2022-10-16T14:47:27;1.29;71.71
69598;SHT31;56802;51.184;-115.558;2022-10-16T14:49:57;1.32;71.70
69598;SHT31;56802;51.184;-115.558;2022-10-16T14:52:27;1.35;71.71
69598;SHT31;56802;51.184;-115.558;2022-10-16T14:54:56;1.39;71.70
69598;SHT31;56802;51.184;-115.558;2022-10-16T14:57:26;1.42;71.70
69598;SHT31;56802;51.184;-115.558;2022-10-16T15:00:01;1.42;71.76
69598;SHT31;56802;51.184;-115.558;2022-10-16T15:02:36;1.41;71.67
69598;SHT31;56802;51.184;-115.558;2022-10-16T15:05:14;1.41;71.70
69598;SHT31;56802;51.184;-115.558;2022-10-16T15:07:55;1.43;71.71
69598;SHT31;56802;51.184;-115.558;2022-10-16T15:10:25;1.44;71.71
69598;SHT31;56802;51.184;-115.558;2022-10-16T15:12:56;1.45;71.70
69598;SHT31;56802;51.184;-115.558;2022-10-16T15:18:11;1.48;71.63
69598;SHT31;56802;51.184;-115.558;2022-10-16T15:20:48;1.53;71.61
69598;SHT31;56802;51.184;-115.558;2022-10-16T15:23:19;1.58;71.55
69598;SHT31;56802;51.184;-115.558;2022-10-16T15:25:52;1.63;71.44
69598;SHT31;56802;51.184;-115.558;2022-10-16T15:28:24;1.70;71.37
69598;SHT31;56802;51.184;-115.558;2022-10-16T15:30:55;1.77;71.15
69598;SHT31;56802;51.184;-115.558;2022-10-16T15:33:26;1.82;71.02
69598;SHT31;56802;51.184;-115.558;2022-10-16T15:36:05;1.85;71.00
69598;SHT31;56802;51.184;-115.558;2022-10-16T15:38:35;1.87;71.05
69598;SHT31;56802;51.184;-115.558;2022-10-16T15:41:05;1.88;71.09
69598;SHT31;56802;51.184;-115.558;2022-10-16T15:43:34;1.90;71.11
69598;SHT31;56802;51.184;-115.558;2022-10-16T15:46:04;1.93;71.11
69598;SHT31;56802;51.184;-115.558;2022-10-16T15:48:38;1.96;71.14
69598;SHT31;56802;51.184;-115.558;2022-10-16T15:51:07;2.01;71.18
69598;SHT31;56802;51.184;-115.558;2022-10-16T15:53:37;2.09;71.10
69598;SHT31;56802;51.184;-115.558;2022-10-16T15:56:07;2.16;70.98
69598;SHT31;56802;51.184;-115.558;2022-10-16T15:58:39;2.25;70.90
69598;SHT31;56802;51.184;-115.558;2022-10-16T16:01:09;2.34;70.74
69598;SHT31;56802;51.184;-115.558;2022-10-16T16:03:39;2.45;70.66
69598;SHT31;56802;51.184;-115.558;2022-10-16T16:06:09;2.58;70.47
69598;SHT31;56802;51.184;-115.558;2022-10-16T16:08:40;2.69;70.25
69598;SHT31;56802;51.184;-115.558;2022-10-16T16:11:10;2.82;70.02
69598;SHT31;56802;51.184;-115.558;2022-10-16T16:13:43;2.92;69.83
69598;SHT31;56802;51.184;-115.558;2022-10-16T16:16:13;3.01;69.68
69598;SHT31;56802;51.184;-115.558;2022-10-16T16:18:44;3.10;69.57
69598;SHT31;56802;51.184;-115.558;2022-10-16T16:21:13;3.18;69.48
69598;SHT31;56802;51.184;-115.558;2022-10-16T16:23:42;3.24;69.46
69598;SHT31;56802;51.184;-115.558;2022-10-16T16:26:18;3.31;69.32
69598;SHT31;56802;51.184;-115.558;2022-10-16T16:29:00;3.37;69.06
69598;SHT31;56802;51.184;-115.558;2022-10-16T16:31:30;3.41;68.99
69598;SHT31;56802;51.184;-115.558;2022-10-16T16:34:02;3.49;68.92
69598;SHT31;56802;51.184;-115.558;2022-10-16T16:36:32;3.58;68.79
69598;SHT31;56802;51.184;-115.558;2022-10-16T16:39:02;3.66;68.57
69598;SHT31;56802;51.184;-115.558;2022-10-16T16:41:32;3.75;68.51
69598;SHT31;56802;51.184;-115.558;2022-10-16T16:44:03;3.88;68.39
69598;SHT31;56802;51.184;-115.558;2022-10-16T16:46:36;4.01;68.23
69598;SHT31;56802;51.184;-115.558;2022-10-16T16:49:06;4.14;68.12
69598;SHT31;56802;51.184;-115.558;2022-10-16T16:51:40;4.26;67.86
69598;SHT31;56802;51.184;-115.558;2022-10-16T16:54:10;4.42;67.47
69598;SHT31;56802;51.184;-115.558;2022-10-16T16:56:41;4.54;67.00
69598;SHT31;56802;51.184;-115.558;2022-10-16T16:59:16;4.65;66.66
69598;SHT31;56802;51.184;-115.558;2022-10-16T17:01:49;4.77;66.24
69598;SHT31;56802;51.184;-115.558;2022-10-16T17:04:23;4.87;65.97
69598;SHT31;56802;51.184;-115.558;2022-10-16T17:06:55;4.95;65.84
69598;SHT31;56802;51.184;-115.558;2022-10-16T17:09:24;5.02;65.92
69598;SHT31;56802;51.184;-115.558;2022-10-16T17:11:53;5.07;65.92
69598;SHT31;56802;51.184;-115.558;2022-10-16T17:14:22;5.14;65.76
69598;SHT31;56802;51.184;-115.558;2022-10-16T17:16:52;5.21;65.55
69598;SHT31;56802;51.184;-115.558;2022-10-16T17:19:21;5.29;65.38
69598;SHT31;56802;51.184;-115.558;2022-10-16T17:21:51;5.39;65.41
69598;SHT31;56802;51.184;-115.558;2022-10-16T17:24:21;5.48;65.31
69598;SHT31;56802;51.184;-115.558;2022-10-16T17:26:51;5.56;65.22
69598;SHT31;56802;51.184;-115.558;2022-10-16T17:29:20;5.62;65.20
69598;SHT31;56802;51.184;-115.558;2022-10-16T17:31:50;5.75;64.85
69598;SHT31;56802;51.184;-115.558;2022-10-16T17:34:19;5.92;64.56
69598;SHT31;56802;51.184;-115.558;2022-10-16T17:36:48;6.06;64.05
69598;SHT31;56802;51.184;-115.558;2022-10-16T17:39:18;6.24;63.57
69598;SHT31;56802;51.184;-115.558;2022-10-16T17:41:47;6.34;63.55